Time;durP1;ratioP1;P1;durP2;ratioP2;P2;SDS_P1;SDS_P2;PMS_P1;PMS_P2;Temp;Humidity;BMP_temperature;BMP_pressure;BME280_temperature;BME280_humidity;BME280_pressure;Samples;Min_cycle;Max_cycle;Signal;HPM_P1;HPM_P2
2023/05/16 00:00:34;;;;;;;0.10;0.10;;;9.10;99.90;;;;;;4934357;29;20047;-81
2023/05/16 00:03:04;;;;;;;0.10;0.10;;;9.10;99.90;;;;;;4942395;28;20466;-81
2023/05/16 00:05:29;;;;;;;0.17;0.17;;;9.10;99.90;;;;;;4934523;29;20220;-79
2023/05/16 00:07:55;;;;;;;0.13;0.13;;;9.00;99.90;;;;;;4952568;28;20069;-80
2023/05/16 00:10:21;;;;;;;0.10;0.10;;;9.00;99.90;;;;;;4951035;28;20042;-80
2023/05/16 00:12:50;;;;;;;0.20;0.20;;;9.00;99.90;;;;;;4942623;28;20050;-80
2023/05/16 00:15:16;;;;;;;0.10;0.10;;;9.00;99.90;;;;;;5326252;23;21623;-80
2023/05/16 00:17:45;;;;;;;0.20;0.20;;;9.00;99.90;;;;;;4953178;28;20050;-81
2023/05/16 00:20:12;;;;;;;0.20;0.20;;;9.00;99.90;;;;;;4954834;28;20082;-80
2023/05/16 00:22:40;;;;;;;0.20;0.20;;;9.00;99.90;;;;;;4968639;28;20117;-80
2023/05/16 00:25:08;;;;;;;0.13;0.13;;;9.00;99.90;;;;;;4998027;28;20049;-79
2023/05/16 00:27:34;;;;;;;0.20;0.20;;;8.90;99.90;;;;;;4984359;28;20039;-81
2023/05/16 00:30:01;;;;;;;0.10;0.10;;;8.90;99.90;;;;;;4974959;28;20146;-81
2023/05/16 00:32:27;;;;;;;0.20;0.20;;;8.90;99.90;;;;;;4976601;28;20110;-80
2023/05/16 00:34:52;;;;;;;0.20;0.20;;;8.80;99.90;;;;;;4954010;28;20519;-81
2023/05/16 00:37:18;;;;;;;0.20;0.20;;;8.80;99.90;;;;;;4972639;28;20034;-81
2023/05/16 00:39:46;;;;;;;0.17;0.17;;;8.90;99.90;;;;;;4971108;28;20050;-80
2023/05/16 00:42:12;;;;;;;0.20;0.20;;;8.80;99.90;;;;;;4988230;28;20038;-80
2023/05/16 00:44:38;;;;;;;0.20;0.20;;;8.70;99.90;;;;;;4969630;28;20719;-81
2023/05/16 00:47:04;;;;;;;0.20;0.20;;;8.70;99.90;;;;;;4952000;28;20487;-81
2023/05/16 00:49:29;;;;;;;0.17;0.17;;;8.70;99.90;;;;;;4952714;28;20039;-81
2023/05/16 00:51:56;;;;;;;0.20;0.20;;;8.70;99.90;;;;;;4968128;28;20065;-80
2023/05/16 00:54:25;;;;;;;0.20;0.20;;;8.90;99.90;;;;;;4963338;28;20100;-81
2023/05/16 00:56:54;;;;;;;0.10;0.10;;;8.70;99.90;;;;;;4969789;28;20078;-81
2023/05/16 00:59:19;;;;;;;0.20;0.20;;;8.80;99.90;;;;;;4955385;28;20896;-80
2023/05/16 01:01:49;;;;;;;0.20;0.20;;;8.60;99.90;;;;;;4951507;28;20050;-80
2023/05/16 01:04:15;;;;;;;0.20;0.20;;;8.60;99.90;;;;;;4969602;28;21142;-80
2023/05/16 01:06:41;;;;;;;0.10;0.10;;;8.60;99.90;;;;;;4969346;28;20455;-81
2023/05/16 01:09:07;;;;;;;0.20;0.20;;;8.90;99.90;;;;;;4954941;28;20121;-81
2023/05/16 01:12:02;;;;;;;0.10;0.10;;;8.70;99.90;;;;;;4986648;28;20054;-80
2023/05/16 01:15:05;;;;;;;0.13;0.13;;;8.60;99.90;;;;;;4935739;28;20484;-81
2023/05/16 01:17:53;;;;;;;0.13;0.13;;;8.60;99.90;;;;;;4948266;28;20047;-81
2023/05/16 01:20:27;;;;;;;0.20;0.20;;;8.60;99.90;;;;;;4968686;28;20096;-80
2023/05/16 01:23:14;;;;;;;0.20;0.20;;;8.70;99.90;;;;;;4951214;28;20051;-81
2023/05/16 01:25:56;;;;;;;0.20;0.20;;;8.60;99.90;;;;;;4946830;28;20133;-81
2023/05/16 01:28:22;;;;;;;0.20;0.20;;;8.60;99.90;;;;;;4969733;28;20050;-81
2023/05/16 01:30:50;;;;;;;0.20;0.20;;;8.60;99.90;;;;;;4950931;28;20074;-80
2023/05/16 01:33:16;;;;;;;0.20;0.20;;;8.50;99.90;;;;;;4969821;28;20054;-81
2023/05/16 01:36:00;;;;;;;0.15;0.15;;;8.50;99.90;;;;;;4953022;28;20403;-80
2023/05/16 01:38:35;;;;;;;0.20;0.20;;;8.50;99.90;;;;;;4969647;28;20050;-81
2023/05/16 01:41:22;;;;;;;0.10;0.10;;;8.50;99.90;;;;;;4949394;28;20118;-80
2023/05/16 01:43:51;;;;;;;0.20;0.20;;;8.50;99.90;;;;;;4960945;28;20046;-81
2023/05/16 01:46:33;;;;;;;0.20;0.20;;;8.50;99.90;;;;;;4984048;28;20150;-81
2023/05/16 01:49:20;;;;;;;0.20;0.20;;;8.70;99.90;;;;;;4957754;28;20494;-81
2023/05/16 01:51:50;;;;;;;0.10;0.10;;;8.40;99.90;;;;;;4950918;28;20039;-81
2023/05/16 01:54:18;;;;;;;0.20;0.20;;;8.40;99.90;;;;;;4969443;28;20081;-81
2023/05/16 01:56:54;;;;;;;0.20;0.20;;;8.40;99.90;;;;;;4955001;28;20298;-81
2023/05/16 01:59:22;;;;;;;0.20;0.20;;;8.40;99.90;;;;;;4968937;28;20041;-81
2023/05/16 02:01:48;;;;;;;0.20;0.20;;;8.30;99.90;;;;;;4954580;28;20050;-81
2023/05/16 02:04:14;;;;;;;0.20;0.20;;;8.40;99.90;;;;;;4983803;28;20042;-81
2023/05/16 02:06:41;;;;;;;0.20;0.20;;;8.30;99.90;;;;;;4994474;28;20046;-82
2023/05/16 02:09:07;;;;;;;0.20;0.20;;;8.30;99.90;;;;;;4958496;28;20042;-81
2023/05/16 02:11:33;;;;;;;0.20;0.20;;;8.30;99.90;;;;;;4956203;28;20039;-80
2023/05/16 02:13:58;;;;;;;0.13;0.13;;;8.30;99.90;;;;;;4955887;28;20053;-79
2023/05/16 02:16:24;;;;;;;0.15;0.15;;;8.20;99.90;;;;;;4971859;28;20043;-80
2023/05/16 02:18:50;;;;;;;0.20;0.20;;;8.20;99.90;;;;;;4972831;28;20043;-81
2023/05/16 02:21:16;;;;;;;0.20;0.20;;;8.20;99.90;;;;;;4973519;28;20510;-80
2023/05/16 02:23:41;;;;;;;0.10;0.10;;;8.20;99.90;;;;;;4964007;28;20051;-80
2023/05/16 02:26:07;;;;;;;0.20;0.20;;;8.20;99.90;;;;;;4970583;28;20045;-81
2023/05/16 02:28:33;;;;;;;0.20;0.20;;;8.20;99.90;;;;;;4971967;28;20519;-81
2023/05/16 02:30:59;;;;;;;0.10;0.10;;;8.20;99.90;;;;;;4955576;28;20444;-81
2023/05/16 02:33:26;;;;;;;0.10;0.10;;;8.20;99.90;;;;;;4976720;28;20047;-81
2023/05/16 02:35:52;;;;;;;0.20;0.20;;;8.20;99.90;;;;;;4949473;28;20046;-81
2023/05/16 02:38:21;;;;;;;0.20;0.20;;;8.20;99.90;;;;;;4955659;28;20039;-81
2023/05/16 02:41:02;;;;;;;0.20;0.20;;;8.20;99.90;;;;;;4980465;28;20219;-81
2023/05/16 02:43:27;;;;;;;0.20;0.20;;;8.10;99.90;;;;;;4975759;28;20185;-81
2023/05/16 02:45:56;;;;;;;0.20;0.20;;;8.10;99.90;;;;;;4968366;28;20450;-79
2023/05/16 02:48:21;;;;;;;0.20;0.20;;;8.20;99.90;;;;;;4956167;28;20157;-79
2023/05/16 02:50:47;;;;;;;0.20;0.20;;;8.10;99.90;;;;;;4973490;28;20513;-79
2023/05/16 02:53:13;;;;;;;0.20;0.20;;;8.10;99.90;;;;;;4971552;28;20050;-79
2023/05/16 02:55:38;;;;;;;0.20;0.20;;;8.10;99.90;;;;;;4956673;28;20045;-79
2023/05/16 02:58:04;;;;;;;0.20;0.20;;;8.10;99.90;;;;;;4955868;28;20570;-79
2023/05/16 03:00:32;;;;;;;0.10;0.10;;;8.10;99.90;;;;;;4974595;28;20411;-79
2023/05/16 03:03:05;;;;;;;0.20;0.20;;;8.10;99.90;;;;;;4949609;28;20084;-79
2023/05/16 03:05:31;;;;;;;0.20;0.20;;;8.00;99.90;;;;;;4991686;28;20069;-80
2023/05/16 03:07:57;;;;;;;0.20;0.20;;;8.00;99.90;;;;;;4955406;28;20082;-79
2023/05/16 03:10:22;;;;;;;0.20;0.20;;;8.00;99.90;;;;;;4962288;28;20393;-80
2023/05/16 03:12:48;;;;;;;0.20;0.20;;;8.00;99.90;;;;;;4965055;28;20051;-80
2023/05/16 03:15:14;;;;;;;0.20;0.20;;;8.00;99.90;;;;;;4954447;28;20066;-80
2023/05/16 03:17:39;;;;;;;0.20;0.20;;;8.00;99.90;;;;;;4968914;28;20098;-80
2023/05/16 03:20:08;;;;;;;0.20;0.20;;;8.00;99.90;;;;;;4979869;28;20672;-81
2023/05/16 03:22:34;;;;;;;0.20;0.20;;;8.00;99.90;;;;;;4956032;28;20098;-79
2023/05/16 03:25:00;;;;;;;0.20;0.20;;;8.00;99.90;;;;;;4968749;28;20077;-80
2023/05/16 03:27:26;;;;;;;0.20;0.20;;;8.00;99.90;;;;;;4965367;28;20415;-80
2023/05/16 03:29:52;;;;;;;0.20;0.20;;;8.00;99.90;;;;;;4954176;28;20517;-81
2023/05/16 03:32:17;;;;;;;0.20;0.20;;;8.00;99.90;;;;;;4985914;28;20115;-79
2023/05/16 03:34:43;;;;;;;0.10;0.10;;;8.00;99.90;;;;;;4951670;28;20043;-81
2023/05/16 03:37:09;;;;;;;0.13;0.13;;;7.90;99.90;;;;;;4972251;28;20096;-79
2023/05/16 03:39:35;;;;;;;0.20;0.20;;;7.90;99.90;;;;;;4974342;28;20051;-80
2023/05/16 03:42:01;;;;;;;0.10;0.10;;;8.20;99.90;;;;;;4975834;28;20035;-80
2023/05/16 03:44:26;;;;;;;0.20;0.20;;;7.90;99.90;;;;;;4995475;28;20078;-80
2023/05/16 03:46:53;;;;;;;0.20;0.20;;;7.90;99.90;;;;;;4978687;28;20105;-80
2023/05/16 03:49:22;;;;;;;0.20;0.20;;;7.90;99.90;;;;;;4961227;28;20050;-80
2023/05/16 03:51:48;;;;;;;0.20;0.20;;;7.90;99.90;;;;;;4968720;28;20051;-80
2023/05/16 03:54:14;;;;;;;0.17;0.17;;;7.90;99.90;;;;;;4969986;28;20065;-80
2023/05/16 03:56:39;;;;;;;0.20;0.20;;;7.90;99.90;;;;;;4970121;28;20564;-80
2023/05/16 03:59:05;;;;;;;0.20;0.20;;;7.90;99.90;;;;;;4952639;28;20046;-80
2023/05/16 04:01:30;;;;;;;0.20;0.20;;;7.90;99.90;;;;;;4953060;28;20050;-79
2023/05/16 04:03:56;;;;;;;0.20;0.20;;;7.90;99.90;;;;;;4958053;28;20054;-79
2023/05/16 04:06:33;;;;;;;0.10;0.10;;;7.90;99.90;;;;;;4954463;28;20039;-80
2023/05/16 04:08:59;;;;;;;0.20;0.20;;;7.90;99.90;;;;;;4980015;28;20050;-79
2023/05/16 04:11:25;;;;;;;0.10;0.10;;;7.90;99.90;;;;;;4972740;28;20129;-79
2023/05/16 04:13:52;;;;;;;0.20;0.20;;;7.90;99.90;;;;;;4964280;28;20054;-79
2023/05/16 04:16:18;;;;;;;0.20;0.20;;;7.90;99.90;;;;;;4984010;28;20102;-79
2023/05/16 04:18:46;;;;;;;0.20;0.20;;;8.00;99.90;;;;;;4949038;28;20142;-79
2023/05/16 04:21:14;;;;;;;0.20;0.20;;;7.90;99.90;;;;;;4955326;28;20043;-79
2023/05/16 04:23:40;;;;;;;0.15;0.15;;;7.90;99.90;;;;;;4974337;28;20058;-79
2023/05/16 04:26:06;;;;;;;0.20;0.20;;;8.10;99.90;;;;;;4971662;28;20097;-79
2023/05/16 04:28:31;;;;;;;0.10;0.10;;;7.90;99.90;;;;;;4956155;28;20042;-80
2023/05/16 04:30:57;;;;;;;0.13;0.13;;;7.90;99.90;;;;;;4963736;23;20063;-79
2023/05/16 04:33:26;;;;;;;0.10;0.10;;;8.00;99.90;;;;;;4933774;29;20035;-79
2023/05/16 04:35:53;;;;;;;0.20;0.20;;;8.00;99.90;;;;;;4934106;29;20054;-80
2023/05/16 04:38:19;;;;;;;0.17;0.17;;;8.00;99.90;;;;;;4933419;29;20518;-80
2023/05/16 04:40:45;;;;;;;0.20;0.20;;;8.00;99.90;;;;;;4951615;29;20094;-80
2023/05/16 04:43:11;;;;;;;0.10;0.10;;;8.00;99.90;;;;;;4949376;29;20452;-80
2023/05/16 04:45:36;;;;;;;0.20;0.20;;;8.00;99.90;;;;;;4929097;29;20062;-80
2023/05/16 04:48:03;;;;;;;0.20;0.20;;;8.10;99.90;;;;;;4951075;29;20122;-78
2023/05/16 04:50:29;;;;;;;0.20;0.20;;;8.10;99.90;;;;;;4928398;29;20043;-80
2023/05/16 04:52:55;;;;;;;0.20;0.20;;;8.10;99.90;;;;;;4933918;29;20050;-79
2023/05/16 04:55:21;;;;;;;0.20;0.20;;;8.20;99.90;;;;;;4933815;29;20086;-80
2023/05/16 04:57:46;;;;;;;0.13;0.13;;;8.30;99.90;;;;;;4931841;29;20542;-80
2023/05/16 05:00:16;;;;;;;0.20;0.20;;;8.30;99.90;;;;;;4950312;29;20130;-80
2023/05/16 05:02:43;;;;;;;0.20;0.20;;;8.30;99.90;;;;;;4955672;29;20126;-80
2023/05/16 05:05:09;;;;;;;0.20;0.20;;;8.30;99.90;;;;;;4952287;29;20047;-80
2023/05/16 05:07:34;;;;;;;0.10;0.10;;;8.40;99.90;;;;;;4931806;29;20047;-79
2023/05/16 05:10:00;;;;;;;0.20;0.20;;;8.40;99.90;;;;;;4932210;29;20134;-80
2023/05/16 05:12:26;;;;;;;0.10;0.10;;;8.50;99.90;;;;;;4946478;29;20046;-80
2023/05/16 05:14:52;;;;;;;0.20;0.20;;;8.50;99.90;;;;;;4928691;29;20479;-80
2023/05/16 05:17:19;;;;;;;0.20;0.20;;;8.50;99.90;;;;;;4947544;28;20085;-80
2023/05/16 05:19:45;;;;;;;0.10;0.10;;;8.60;99.90;;;;;;4948524;29;20054;-80
2023/05/16 05:22:11;;;;;;;0.20;0.20;;;8.60;99.90;;;;;;4953967;29;20054;-79
2023/05/16 05:24:37;;;;;;;0.13;0.13;;;8.60;99.90;;;;;;4967358;29;20055;-81
2023/05/16 05:27:03;;;;;;;0.20;0.20;;;8.60;99.90;;;;;;4940237;29;20116;-80
2023/05/16 05:29:31;;;;;;;0.20;0.20;;;8.60;99.90;;;;;;4948460;29;20035;-79
2023/05/16 05:31:57;;;;;;;0.20;0.20;;;8.60;99.90;;;;;;4936896;29;20043;-80
2023/05/16 05:34:23;;;;;;;0.20;0.20;;;8.60;99.90;;;;;;4933030;29;20039;-80
2023/05/16 05:36:48;;;;;;;0.20;0.20;;;8.70;99.90;;;;;;4950126;29;20077;-81
2023/05/16 05:39:14;;;;;;;0.20;0.20;;;8.70;99.90;;;;;;4954318;28;20035;-80
2023/05/16 05:41:40;;;;;;;0.20;0.20;;;9.00;99.90;;;;;;4959581;23;20526;-80
2023/05/16 05:44:05;;;;;;;0.10;0.10;;;9.00;99.90;;;;;;4975076;28;20039;-82
2023/05/16 05:46:32;;;;;;;0.17;0.17;;;8.90;99.90;;;;;;4955001;28;20130;-80
2023/05/16 05:48:58;;;;;;;0.10;0.10;;;9.10;99.90;;;;;;4977246;28;20124;-80
2023/05/16 05:51:24;;;;;;;0.10;0.10;;;9.10;99.90;;;;;;4976371;28;20065;-80
2023/05/16 05:53:51;;;;;;;0.20;0.20;;;9.20;99.90;;;;;;4956481;28;20039;-80
2023/05/16 05:56:17;;;;;;;0.20;0.20;;;9.20;99.90;;;;;;4960452;28;20042;-80
2023/05/16 05:58:43;;;;;;;0.10;0.10;;;9.30;99.90;;;;;;4975342;28;20098;-80
2023/05/16 06:01:12;;;;;;;0.15;0.15;;;9.30;99.90;;;;;;4975393;28;20039;-78
2023/05/16 06:03:37;;;;;;;0.20;0.20;;;9.50;99.90;;;;;;4953949;28;20263;-79
2023/05/16 06:06:03;;;;;;;0.20;0.20;;;9.50;99.90;;;;;;4973346;28;20050;-79
2023/05/16 06:08:29;;;;;;;0.10;0.10;;;9.50;99.90;;;;;;4961704;28;20054;-79
2023/05/16 06:10:55;;;;;;;0.10;0.10;;;9.60;99.90;;;;;;4975170;28;20053;-81
2023/05/16 06:13:23;;;;;;;0.20;0.20;;;9.60;99.90;;;;;;4972163;28;20106;-82
2023/05/16 06:15:50;;;;;;;0.20;0.20;;;9.70;99.90;;;;;;4974841;28;20057;-79
2023/05/16 06:18:19;;;;;;;0.10;0.10;;;9.80;99.90;;;;;;4963331;28;20046;-79
2023/05/16 06:20:45;;;;;;;0.15;0.15;;;9.80;99.90;;;;;;4979968;28;20047;-80
2023/05/16 06:23:11;;;;;;;0.20;0.20;;;9.90;99.90;;;;;;4969437;28;20134;-81
2023/05/16 06:25:37;;;;;;;0.10;0.10;;;9.90;99.90;;;;;;4956662;28;20055;-80
2023/05/16 06:28:03;;;;;;;0.10;0.10;;;10.00;99.90;;;;;;4979552;28;20267;-79
2023/05/16 06:30:28;;;;;;;0.20;0.20;;;10.10;99.90;;;;;;4953888;28;20049;-78
2023/05/16 06:32:54;;;;;;;0.10;0.10;;;10.20;99.90;;;;;;4968392;28;20043;-80
2023/05/16 06:35:20;;;;;;;0.20;0.20;;;10.10;99.90;;;;;;4952830;28;20078;-79
2023/05/16 06:37:45;;;;;;;0.20;0.20;;;10.10;99.90;;;;;;4957838;28;20117;-79
2023/05/16 06:40:12;;;;;;;0.17;0.17;;;10.20;99.90;;;;;;4974367;28;20376;-79
2023/05/16 06:42:37;;;;;;;0.20;0.20;;;10.00;99.90;;;;;;4973607;28;20571;-79
2023/05/16 06:45:03;;;;;;;0.10;0.10;;;10.00;99.90;;;;;;4972288;28;20049;-80
2023/05/16 06:47:29;;;;;;;0.10;0.10;;;10.10;99.90;;;;;;4956575;28;20047;-81
2023/05/16 06:49:54;;;;;;;0.20;0.20;;;10.20;99.90;;;;;;4973896;28;20043;-79
2023/05/16 06:52:21;;;;;;;0.20;0.20;;;10.40;99.90;;;;;;4955226;28;20042;-80
2023/05/16 06:54:46;;;;;;;0.20;0.20;;;10.40;99.90;;;;;;4956511;28;20046;-81
2023/05/16 06:57:12;;;;;;;0.10;0.10;;;10.40;99.90;;;;;;4981873;28;20676;-80
2023/05/16 06:59:38;;;;;;;0.10;0.10;;;10.30;99.90;;;;;;4948548;28;20057;-81
2023/05/16 07:02:04;;;;;;;0.20;0.20;;;10.30;99.90;;;;;;4964944;28;20090;-81
2023/05/16 07:04:30;;;;;;;0.10;0.10;;;10.20;99.90;;;;;;4970462;28;20058;-81
2023/05/16 07:06:56;;;;;;;0.20;0.20;;;10.20;99.90;;;;;;4976595;28;20384;-80
2023/05/16 07:09:22;;;;;;;0.17;0.17;;;10.20;99.90;;;;;;4947938;28;20116;-81
2023/05/16 07:11:47;;;;;;;0.20;0.20;;;10.30;99.90;;;;;;4972660;28;20043;-80
2023/05/16 07:14:13;;;;;;;0.20;0.20;;;10.30;99.90;;;;;;4955907;28;20038;-80
2023/05/16 07:16:38;;;;;;;0.10;0.10;;;10.30;99.90;;;;;;4954132;28;20188;-79
2023/05/16 07:19:04;;;;;;;0.20;0.20;;;10.40;99.90;;;;;;4955481;28;20051;-81
2023/05/16 07:21:30;;;;;;;0.20;0.20;;;10.50;99.90;;;;;;4953105;28;20494;-80
2023/05/16 07:23:58;;;;;;;0.20;0.20;;;10.60;99.90;;;;;;4973147;28;20039;-81
2023/05/16 07:26:24;;;;;;;0.20;0.20;;;10.70;99.90;;;;;;4960921;28;20130;-80
2023/05/16 07:28:50;;;;;;;0.17;0.17;;;10.80;99.90;;;;;;4951318;28;20177;-82
2023/05/16 07:31:16;;;;;;;0.20;0.20;;;10.80;99.90;;;;;;4970311;28;20035;-82
2023/05/16 07:33:42;;;;;;;0.15;0.15;;;10.70;99.90;;;;;;4949730;28;20648;-81
2023/05/16 07:36:09;;;;;;;0.10;0.10;;;10.80;99.90;;;;;;4972247;28;20085;-80
2023/05/16 07:38:35;;;;;;;0.20;0.20;;;10.70;99.90;;;;;;4965939;28;20080;-81
2023/05/16 07:41:00;;;;;;;0.20;0.20;;;10.80;99.90;;;;;;4963631;28;20051;-81
2023/05/16 07:43:26;;;;;;;0.10;0.10;;;10.80;99.90;;;;;;4952605;28;20129;-79
2023/05/16 07:45:52;;;;;;;0.10;0.10;;;10.90;99.90;;;;;;4971542;28;20042;-81
2023/05/16 07:48:18;;;;;;;0.20;0.20;;;11.00;99.90;;;;;;4954614;28;20395;-81
2023/05/16 07:50:43;;;;;;;0.20;0.20;;;11.10;99.90;;;;;;4954168;28;20483;-81
2023/05/16 07:53:09;;;;;;;0.10;0.10;;;11.30;99.90;;;;;;4972565;28;20086;-80
2023/05/16 07:55:37;;;;;;;0.20;0.20;;;11.20;99.90;;;;;;4954649;28;20042;-81
2023/05/16 07:58:03;;;;;;;0.13;0.13;;;11.20;99.90;;;;;;4957155;28;20077;-81
2023/05/16 08:00:29;;;;;;;0.15;0.15;;;11.20;99.90;;;;;;4962831;28;20402;-82
2023/05/16 08:02:56;;;;;;;0.10;0.10;;;11.20;99.90;;;;;;4969384;28;20449;-82
2023/05/16 08:05:23;;;;;;;0.20;0.20;;;11.20;99.90;;;;;;4948113;28;20403;-82
2023/05/16 08:07:48;;;;;;;0.20;0.20;;;11.20;99.90;;;;;;4975544;28;20042;-81
2023/05/16 08:10:16;;;;;;;0.20;0.20;;;11.20;99.90;;;;;;4977184;28;20073;-81
2023/05/16 08:12:42;;;;;;;0.10;0.10;;;11.30;99.90;;;;;;4956316;28;20081;-81
2023/05/16 08:15:08;;;;;;;0.10;0.10;;;11.20;99.90;;;;;;4989656;28;20121;-83
2023/05/16 08:17:43;;;;;;;0.10;0.10;;;11.30;99.90;;;;;;4973617;28;20082;-82
2023/05/16 08:20:09;;;;;;;0.15;0.15;;;11.20;99.90;;;;;;4955461;28;20129;-82
2023/05/16 08:22:35;;;;;;;0.10;0.10;;;11.20;99.90;;;;;;4972878;28;20097;-80
2023/05/16 08:25:00;;;;;;;0.20;0.20;;;11.10;99.90;;;;;;4967560;28;20043;-82
2023/05/16 08:27:27;;;;;;;0.20;0.20;;;11.10;99.90;;;;;;4957202;28;20403;-79
2023/05/16 08:29:53;;;;;;;0.20;0.20;;;11.00;99.90;;;;;;4952980;28;20057;-79
2023/05/16 08:32:22;;;;;;;0.20;0.20;;;11.00;99.90;;;;;;4961878;23;20055;-79
2023/05/16 08:34:48;;;;;;;0.20;0.20;;;11.00;99.90;;;;;;4950724;28;20039;-79
2023/05/16 08:37:13;;;;;;;0.10;0.10;;;11.50;99.90;;;;;;4961376;28;20039;-78
2023/05/16 08:39:59;;;;;;;0.20;0.20;;;11.20;99.90;;;;;;4949727;28;20080;-79
2023/05/16 08:42:28;;;;;;;0.10;0.10;;;11.30;99.90;;;;;;4965006;29;20051;-79
2023/05/16 08:45:07;;;;;;;0.20;0.20;;;11.40;99.90;;;;;;4962324;29;20130;-80
2023/05/16 08:47:39;;;;;;;0.20;0.20;;;11.50;99.90;;;;;;4946392;29;20058;-77
2023/05/16 08:50:08;;;;;;;0.10;0.10;;;11.60;99.90;;;;;;4936834;29;20043;-80
2023/05/16 08:52:37;;;;;;;0.20;0.20;;;11.60;99.90;;;;;;4946450;28;20185;-82
2023/05/16 08:55:08;;;;;;;0.20;0.20;;;11.60;99.90;;;;;;4955952;28;20400;-80
2023/05/16 08:57:37;;;;;;;0.20;0.20;;;11.60;99.90;;;;;;4950382;28;20050;-81
2023/05/16 09:00:10;;;;;;;0.20;0.20;;;11.60;99.90;;;;;;4946324;29;20039;-83
2023/05/16 09:02:40;;;;;;;0.20;0.20;;;11.50;99.90;;;;;;4942151;28;20070;-83
2023/05/16 09:05:10;;;;;;;0.15;0.15;;;11.60;99.90;;;;;;4950977;29;20509;-84
2023/05/16 09:07:36;;;;;;;0.20;0.20;;;11.50;99.90;;;;;;4950333;29;20059;-83
2023/05/16 09:10:01;;;;;;;0.10;0.10;;;11.60;99.90;;;;;;4950168;29;20039;-85
2023/05/16 09:12:27;;;;;;;0.10;0.10;;;11.70;99.90;;;;;;4948978;29;20043;-84
2023/05/16 09:14:56;;;;;;;0.10;0.10;;;11.70;99.90;;;;;;4944825;29;20071;-76
2023/05/16 09:17:21;;;;;;;0.10;0.10;;;11.70;99.90;;;;;;4948007;28;20055;-83
2023/05/16 09:19:51;;;;;;;0.20;0.20;;;11.50;99.90;;;;;;4950196;29;20039;-80
2023/05/16 09:22:17;;;;;;;0.10;0.10;;;11.60;99.90;;;;;;4949407;28;20043;-80
2023/05/16 09:24:44;;;;;;;0.10;0.10;;;11.60;99.90;;;;;;4948921;29;20045;-82
2023/05/16 09:27:12;;;;;;;0.20;0.20;;;11.80;99.90;;;;;;4947877;29;20439;-74
2023/05/16 09:29:45;;;;;;;0.20;0.20;;;11.80;99.90;;;;;;4948906;29;20046;-81
2023/05/16 09:32:16;;;;;;;0.20;0.20;;;11.90;99.90;;;;;;4948767;29;20071;-79
2023/05/16 09:34:50;;;;;;;0.20;0.20;;;11.80;99.90;;;;;;4954618;28;20248;-81
2023/05/16 09:37:19;;;;;;;0.20;0.20;;;11.80;99.90;;;;;;4949835;28;20114;-81
2023/05/16 09:39:50;;;;;;;0.20;0.20;;;12.00;99.90;;;;;;4949389;28;20434;-81
2023/05/16 09:42:17;;;;;;;0.20;0.20;;;11.50;99.90;;;;;;4950924;29;20442;-80
2023/05/16 09:44:52;;;;;;;0.10;0.10;;;11.50;99.90;;;;;;4948904;29;20058;-82
2023/05/16 09:47:21;;;;;;;0.20;0.20;;;11.50;99.90;;;;;;4948844;29;20106;-83
2023/05/16 09:49:51;;;;;;;0.20;0.20;;;11.60;99.90;;;;;;4941770;29;20489;-82
2023/05/16 09:52:17;;;;;;;0.20;0.20;;;11.60;99.90;;;;;;4947477;29;20369;-83
2023/05/16 09:54:49;;;;;;;0.10;0.10;;;11.80;99.90;;;;;;4947761;28;20046;-85
2023/05/16 09:57:22;;;;;;;0.20;0.20;;;11.80;99.90;;;;;;4945752;29;20411;-83
2023/05/16 09:59:49;;;;;;;0.10;0.10;;;12.00;99.90;;;;;;4949946;29;20094;-86
2023/05/16 10:02:15;;;;;;;0.20;0.20;;;12.00;99.90;;;;;;4951576;29;20046;-82
2023/05/16 10:04:41;;;;;;;0.10;0.10;;;12.00;99.90;;;;;;4949621;29;20043;-81
2023/05/16 10:07:08;;;;;;;0.20;0.20;;;11.90;99.90;;;;;;4948911;29;20043;-82
2023/05/16 10:09:35;;;;;;;0.13;0.13;;;12.00;99.90;;;;;;4947162;29;20157;-84
2023/05/16 10:12:03;;;;;;;0.20;0.20;;;12.10;99.90;;;;;;4954493;29;20118;-83
2023/05/16 10:14:33;;;;;;;0.20;0.20;;;12.10;99.90;;;;;;4956719;29;20039;-83
2023/05/16 10:16:59;;;;;;;0.13;0.13;;;12.20;99.90;;;;;;4948937;29;20574;-83
2023/05/16 10:19:26;;;;;;;0.20;0.20;;;12.40;99.90;;;;;;4956348;28;20031;-83
2023/05/16 10:21:58;;;;;;;0.20;0.20;;;12.10;99.90;;;;;;4972490;28;20043;-85
2023/05/16 10:24:30;;;;;;;0.20;0.20;;;11.90;99.90;;;;;;4961673;29;20031;-83
2023/05/16 10:26:56;;;;;;;0.10;0.10;;;11.70;99.90;;;;;;4950825;28;20091;-83
2023/05/16 10:29:23;;;;;;;0.20;0.20;;;11.50;99.90;;;;;;4954410;28;20432;-84
2023/05/16 10:31:49;;;;;;;0.20;0.20;;;11.50;99.90;;;;;;4953530;29;20385;-83
2023/05/16 10:34:16;;;;;;;0.20;0.20;;;11.30;99.90;;;;;;4954649;28;20043;-84
2023/05/16 10:36:44;;;;;;;0.20;0.20;;;11.40;99.90;;;;;;4953318;29;20393;-85
2023/05/16 10:39:11;;;;;;;0.10;0.10;;;11.50;99.90;;;;;;4954329;28;20486;-83
2023/05/16 10:41:37;;;;;;;0.20;0.20;;;11.70;99.90;;;;;;4955531;28;20047;-83
2023/05/16 10:44:03;;;;;;;0.10;0.10;;;11.80;99.90;;;;;;4952550;29;20054;-84
2023/05/16 10:46:32;;;;;;;0.20;0.20;;;11.80;99.90;;;;;;4954284;29;20089;-85
2023/05/16 10:49:19;;;;;;;0.20;0.20;;;11.80;99.90;;;;;;4955586;28;20526;-85
2023/05/16 10:51:44;;;;;;;0.20;0.20;;;11.80;99.90;;;;;;4958258;29;20062;-84
2023/05/16 10:54:13;;;;;;;0.10;0.10;;;11.80;99.90;;;;;;4957105;29;20399;-82
2023/05/16 10:56:39;;;;;;;0.20;0.20;;;11.90;99.90;;;;;;4954589;29;20073;-83
2023/05/16 10:59:25;;;;;;;0.20;0.20;;;12.00;99.90;;;;;;4953080;29;20485;-88
2023/05/16 11:01:54;;;;;;;0.10;0.10;;;12.30;99.90;;;;;;4949365;29;20047;-85
2023/05/16 11:04:20;;;;;;;0.17;0.17;;;12.40;99.90;;;;;;4952128;28;20539;-87
2023/05/16 11:06:51;;;;;;;0.20;0.20;;;12.50;99.90;;;;;;4954301;29;20046;-87
2023/05/16 11:09:18;;;;;;;0.20;0.20;;;12.50;99.90;;;;;;4952565;29;20143;-86
2023/05/16 11:11:58;;;;;;;0.20;0.20;;;12.50;99.90;;;;;;4955147;28;20123;-88
2023/05/16 11:14:24;;;;;;;0.13;0.13;;;12.50;99.90;;;;;;4952271;29;20096;-84
2023/05/16 11:16:50;;;;;;;0.20;0.20;;;12.60;99.90;;;;;;4943955;29;20054;-86
2023/05/16 11:19:34;;;;;;;0.20;0.20;;;12.70;99.90;;;;;;4952946;29;20054;-87
2023/05/16 11:22:18;;;;;;;0.10;0.10;;;12.80;99.90;;;;;;4954544;29;20075;-87
2023/05/16 11:24:58;;;;;;;0.10;0.10;;;12.90;99.90;;;;;;4954013;29;20047;-84
2023/05/16 11:27:32;;;;;;;0.10;0.10;;;13.00;99.90;;;;;;4951550;29;20077;-85
2023/05/16 11:30:12;;;;;;;0.10;0.10;;;13.00;99.90;;;;;;4947441;29;20074;-88
2023/05/16 11:32:40;;;;;;;0.10;0.10;;;12.90;99.90;;;;;;4959767;29;20059;-84
2023/05/16 11:35:09;;;;;;;0.15;0.15;;;13.00;99.90;;;;;;4949642;29;20039;-85
2023/05/16 11:37:41;;;;;;;0.15;0.15;;;13.00;99.90;;;;;;4954719;28;20477;-86
2023/05/16 11:40:10;;;;;;;0.10;0.10;;;13.10;99.90;;;;;;4952441;28;20043;-86
2023/05/16 11:42:38;;;;;;;0.10;0.10;;;13.30;99.90;;;;;;4954066;28;20043;-86
2023/05/16 11:45:08;;;;;;;0.20;0.20;;;13.50;99.90;;;;;;4952198;28;20049;-85
2023/05/16 11:47:38;;;;;;;0.10;0.10;;;13.60;99.90;;;;;;4952158;29;20055;-86
2023/05/16 11:50:16;;;;;;;0.30;0.30;;;13.80;99.90;;;;;;4950563;28;20042;-87
2023/05/16 11:52:47;;;;;;;0.10;0.10;;;13.90;99.90;;;;;;4944151;29;20155;-85
2023/05/16 11:55:14;;;;;;;0.20;0.20;;;14.00;99.90;;;;;;4953529;28;20633;-86
2023/05/16 11:57:41;;;;;;;0.10;0.10;;;14.00;99.90;;;;;;4952855;29;20047;-85
2023/05/16 12:00:18;;;;;;;0.20;0.20;;;14.00;99.90;;;;;;4971771;28;20051;-83
2023/05/16 12:02:48;;;;;;;0.20;0.20;;;13.90;99.90;;;;;;4967689;28;20114;-86
2023/05/16 12:05:16;;;;;;;0.10;0.10;;;14.00;99.90;;;;;;4952175;29;20369;-86
2023/05/16 12:07:46;;;;;;;0.10;0.10;;;13.80;99.90;;;;;;4951970;28;20051;-87
2023/05/16 12:10:14;;;;;;;0.20;0.20;;;13.70;99.90;;;;;;4956276;29;20062;-87
2023/05/16 12:12:48;;;;;;;0.10;0.10;;;13.60;99.90;;;;;;4953412;29;20047;-86
2023/05/16 12:15:14;;;;;;;0.20;0.20;;;13.50;99.90;;;;;;4947540;29;20039;-85
2023/05/16 12:17:41;;;;;;;0.20;0.20;;;13.50;99.90;;;;;;4950369;29;20042;-84
2023/05/16 12:20:13;;;;;;;0.13;0.13;;;13.60;99.90;;;;;;4944928;29;20595;-86
2023/05/16 12:22:45;;;;;;;0.20;0.20;;;13.70;99.90;;;;;;4946618;29;20051;-82
2023/05/16 12:25:24;;;;;;;0.20;0.20;;;13.60;99.90;;;;;;4941137;29;20051;-82
2023/05/16 12:27:52;;;;;;;0.10;0.10;;;13.60;99.90;;;;;;4948835;29;20051;-82
2023/05/16 12:30:18;;;;;;;0.20;0.20;;;13.60;99.90;;;;;;4948515;29;20051;-85
2023/05/16 12:32:44;;;;;;;0.10;0.10;;;13.50;99.90;;;;;;4953144;29;20534;-85
2023/05/16 12:35:11;;;;;;;0.10;0.10;;;13.50;99.90;;;;;;4949412;29;20126;-85
2023/05/16 12:37:37;;;;;;;0.15;0.15;;;13.50;99.90;;;;;;4949712;29;20043;-85
2023/05/16 12:40:05;;;;;;;0.10;0.10;;;13.50;99.90;;;;;;4949993;28;20047;-84
2023/05/16 12:42:33;;;;;;;0.10;0.10;;;13.50;99.90;;;;;;4941952;29;20043;-85
2023/05/16 12:44:59;;;;;;;0.20;0.20;;;13.40;99.90;;;;;;4943315;29;20400;-83
2023/05/16 12:47:34;;;;;;;0.20;0.20;;;13.40;99.90;;;;;;4962147;28;20051;-85
2023/05/16 12:50:01;;;;;;;0.20;0.20;;;13.30;99.90;;;;;;4958209;28;20122;-84
2023/05/16 12:52:29;;;;;;;0.15;0.15;;;13.30;99.90;;;;;;4950476;29;20423;-85
2023/05/16 12:54:55;;;;;;;0.13;0.13;;;13.40;99.90;;;;;;4950183;28;20027;-86
2023/05/16 12:57:20;;;;;;;0.20;0.20;;;13.50;99.90;;;;;;4947782;28;20035;-83